sensor_id;sensor_type;location;lat;lon;timestamp;P1;durP1;ratioP1;P2;durP2;ratioP2
47481;SDS011;33219;47.410;9.730;2022-09-27T00:00:17;3.60;;;2.00;;
47481;SDS011;33219;47.410;9.730;2022-09-27T00:02:45;5.37;;;2.00;;
47481;SDS011;33219;47.410;9.730;2022-09-27T00:05:14;2.95;;;1.90;;
47481;SDS011;33219;47.410;9.730;2022-09-27T00:07:42;4.30;;;1.90;;
47481;SDS011;33219;47.410;9.730;2022-09-27T00:10:11;3.40;;;2.10;;
47481;SDS011;33219;47.410;9.730;2022-09-27T00:12:39;4.45;;;1.90;;
47481;SDS011;33219;47.410;9.730;2022-09-27T00:15:07;4.67;;;1.95;;
47481;SDS011;33219;47.410;9.730;2022-09-27T00:17:35;3.27;;;2.00;;
47481;SDS011;33219;47.410;9.730;2022-09-27T00:20:04;3.50;;;2.02;;
47481;SDS011;33219;47.410;9.730;2022-09-27T00:22:32;3.55;;;2.20;;
47481;SDS011;33219;47.410;9.730;2022-09-27T00:25:00;3.12;;;2.00;;
47481;SDS011;33219;47.410;9.730;2022-09-27T00:27:30;3.42;;;1.90;;
47481;SDS011;33219;47.410;9.730;2022-09-27T00:29:57;3.67;;;1.95;;
47481;SDS011;33219;47.410;9.730;2022-09-27T00:32:25;3.70;;;2.15;;
47481;SDS011;33219;47.410;9.730;2022-09-27T00:34:52;3.10;;;2.05;;
47481;SDS011;33219;47.410;9.730;2022-09-27T00:37:20;3.75;;;2.15;;
47481;SDS011;33219;47.410;9.730;2022-09-27T00:39:47;3.02;;;1.90;;
47481;SDS011;33219;47.410;9.730;2022-09-27T00:42:15;4.53;;;2.08;;
47481;SDS011;33219;47.410;9.730;2022-09-27T00:44:58;3.60;;;2.22;;
47481;SDS011;33219;47.410;9.730;2022-09-27T00:50:21;3.42;;;2.10;;
47481;SDS011;33219;47.410;9.730;2022-09-27T00:58:08;4.28;;;2.20;;
47481;SDS011;33219;47.410;9.730;2022-09-27T01:00:38;3.87;;;2.30;;
47481;SDS011;33219;47.410;9.730;2022-09-27T01:03:08;3.10;;;2.37;;
47481;SDS011;33219;47.410;9.730;2022-09-27T01:05:39;3.65;;;2.20;;
47481;SDS011;33219;47.410;9.730;2022-09-27T01:08:07;3.60;;;2.40;;
47481;SDS011;33219;47.410;9.730;2022-09-27T01:10:35;5.42;;;2.35;;
47481;SDS011;33219;47.410;9.730;2022-09-27T01:13:06;4.10;;;2.33;;
47481;SDS011;33219;47.410;9.730;2022-09-27T01:15:41;7.05;;;2.45;;
47481;SDS011;33219;47.410;9.730;2022-09-27T01:23:50;4.35;;;2.12;;
47481;SDS011;33219;47.410;9.730;2022-09-27T01:26:27;3.05;;;2.02;;
47481;SDS011;33219;47.410;9.730;2022-09-27T01:34:25;4.30;;;2.40;;
47481;SDS011;33219;47.410;9.730;2022-09-27T01:37:09;3.62;;;2.10;;
47481;SDS011;33219;47.410;9.730;2022-09-27T01:40:00;4.03;;;2.25;;
47481;SDS011;33219;47.410;9.730;2022-09-27T01:45:05;4.95;;;2.55;;
47481;SDS011;33219;47.410;9.730;2022-09-27T01:47:53;3.67;;;2.60;;
47481;SDS011;33219;47.410;9.730;2022-09-27T01:50:29;4.22;;;2.50;;
47481;SDS011;33219;47.410;9.730;2022-09-27T01:53:02;4.60;;;2.60;;
47481;SDS011;33219;47.410;9.730;2022-09-27T01:55:35;4.37;;;2.40;;
47481;SDS011;33219;47.410;9.730;2022-09-27T01:58:28;5.40;;;3.10;;
47481;SDS011;33219;47.410;9.730;2022-09-27T02:00:38;6.22;;;3.33;;
47481;SDS011;33219;47.410;9.730;2022-09-27T02:03:13;4.37;;;3.22;;
47481;SDS011;33219;47.410;9.730;2022-09-27T02:05:45;6.33;;;3.85;;
47481;SDS011;33219;47.410;9.730;2022-09-27T02:08:25;5.00;;;3.50;;
47481;SDS011;33219;47.410;9.730;2022-09-27T02:11:04;8.60;;;3.42;;
47481;SDS011;33219;47.410;9.730;2022-09-27T02:13:39;4.83;;;3.50;;
47481;SDS011;33219;47.410;9.730;2022-09-27T02:16:38;5.25;;;3.65;;
47481;SDS011;33219;47.410;9.730;2022-09-27T02:22:34;5.50;;;3.70;;
47481;SDS011;33219;47.410;9.730;2022-09-27T02:28:24;6.17;;;4.25;;
47481;SDS011;33219;47.410;9.730;2022-09-27T02:30:53;8.35;;;4.30;;
47481;SDS011;33219;47.410;9.730;2022-09-27T02:33:23;6.65;;;4.12;;
47481;SDS011;33219;47.410;9.730;2022-09-27T02:35:51;6.08;;;3.87;;
47481;SDS011;33219;47.410;9.730;2022-09-27T02:38:19;6.90;;;5.10;;
47481;SDS011;33219;47.410;9.730;2022-09-27T02:40:47;6.25;;;4.42;;
47481;SDS011;33219;47.410;9.730;2022-09-27T02:43:15;6.85;;;4.62;;
47481;SDS011;33219;47.410;9.730;2022-09-27T02:45:50;7.53;;;4.90;;
47481;SDS011;33219;47.410;9.730;2022-09-27T02:48:24;9.03;;;4.85;;
47481;SDS011;33219;47.410;9.730;2022-09-27T02:51:05;8.45;;;5.15;;
47481;SDS011;33219;47.410;9.730;2022-09-27T02:56:32;8.58;;;6.37;;
47481;SDS011;33219;47.410;9.730;2022-09-27T02:59:12;10.18;;;6.37;;
47481;SDS011;33219;47.410;9.730;2022-09-27T03:04:27;6.03;;;4.62;;
47481;SDS011;33219;47.410;9.730;2022-09-27T03:06:55;5.22;;;3.50;;
47481;SDS011;33219;47.410;9.730;2022-09-27T03:09:28;3.90;;;3.33;;
47481;SDS011;33219;47.410;9.730;2022-09-27T03:11:56;5.78;;;4.10;;
47481;SDS011;33219;47.410;9.730;2022-09-27T03:14:23;4.90;;;3.40;;
47481;SDS011;33219;47.410;9.730;2022-09-27T03:16:51;4.53;;;3.17;;
47481;SDS011;33219;47.410;9.730;2022-09-27T03:19:18;5.90;;;4.40;;
47481;SDS011;33219;47.410;9.730;2022-09-27T03:21:46;5.05;;;3.60;;
47481;SDS011;33219;47.410;9.730;2022-09-27T03:24:13;4.15;;;3.02;;
47481;SDS011;33219;47.410;9.730;2022-09-27T03:26:41;5.72;;;4.12;;
47481;SDS011;33219;47.410;9.730;2022-09-27T03:29:08;5.15;;;3.80;;
47481;SDS011;33219;47.410;9.730;2022-09-27T03:31:36;5.67;;;3.70;;
47481;SDS011;33219;47.410;9.730;2022-09-27T03:34:04;5.40;;;3.87;;
47481;SDS011;33219;47.410;9.730;2022-09-27T03:36:32;6.50;;;4.40;;
47481;SDS011;33219;47.410;9.730;2022-09-27T03:38:59;7.58;;;4.60;;
47481;SDS011;33219;47.410;9.730;2022-09-27T03:41:31;6.37;;;4.00;;
47481;SDS011;33219;47.410;9.730;2022-09-27T03:43:56;6.70;;;3.80;;
47481;SDS011;33219;47.410;9.730;2022-09-27T03:46:24;6.37;;;3.80;;
47481;SDS011;33219;47.410;9.730;2022-09-27T03:48:52;5.20;;;3.27;;
47481;SDS011;33219;47.410;9.730;2022-09-27T03:51:20;5.45;;;3.52;;
47481;SDS011;33219;47.410;9.730;2022-09-27T03:53:47;4.33;;;3.20;;
47481;SDS011;33219;47.410;9.730;2022-09-27T03:56:15;5.00;;;3.42;;
47481;SDS011;33219;47.410;9.730;2022-09-27T03:58:43;6.42;;;3.00;;
47481;SDS011;33219;47.410;9.730;2022-09-27T04:01:11;4.70;;;2.67;;
47481;SDS011;33219;47.410;9.730;2022-09-27T04:03:39;4.72;;;2.80;;
47481;SDS011;33219;47.410;9.730;2022-09-27T04:06:06;4.15;;;3.08;;
47481;SDS011;33219;47.410;9.730;2022-09-27T04:08:34;5.60;;;4.00;;
47481;SDS011;33219;47.410;9.730;2022-09-27T04:11:02;3.47;;;2.10;;
47481;SDS011;33219;47.410;9.730;2022-09-27T04:13:30;3.10;;;1.70;;
47481;SDS011;33219;47.410;9.730;2022-09-27T04:15:57;3.85;;;2.05;;
47481;SDS011;33219;47.410;9.730;2022-09-27T04:18:26;4.65;;;2.62;;
47481;SDS011;33219;47.410;9.730;2022-09-27T04:20:54;3.40;;;1.90;;
47481;SDS011;33219;47.410;9.730;2022-09-27T04:23:21;3.12;;;1.52;;
47481;SDS011;33219;47.410;9.730;2022-09-27T04:25:49;3.70;;;1.95;;
47481;SDS011;33219;47.410;9.730;2022-09-27T04:28:17;2.50;;;1.80;;
47481;SDS011;33219;47.410;9.730;2022-09-27T04:30:45;2.40;;;1.20;;
47481;SDS011;33219;47.410;9.730;2022-09-27T04:33:13;1.95;;;1.30;;
47481;SDS011;33219;47.410;9.730;2022-09-27T04:35:41;2.02;;;1.35;;
47481;SDS011;33219;47.410;9.730;2022-09-27T04:38:26;1.55;;;1.22;;
47481;SDS011;33219;47.410;9.730;2022-09-27T04:40:54;1.20;;;1.10;;
47481;SDS011;33219;47.410;9.730;2022-09-27T04:43:21;2.47;;;1.15;;
47481;SDS011;33219;47.410;9.730;2022-09-27T04:45:49;1.95;;;1.00;;
47481;SDS011;33219;47.410;9.730;2022-09-27T04:48:16;2.52;;;1.20;;
47481;SDS011;33219;47.410;9.730;2022-09-27T04:50:44;2.17;;;1.10;;
47481;SDS011;33219;47.410;9.730;2022-09-27T04:53:15;1.40;;;1.00;;
47481;SDS011;33219;47.410;9.730;2022-09-27T04:55:45;3.17;;;1.20;;
47481;SDS011;33219;47.410;9.730;2022-09-27T04:58:13;1.37;;;1.07;;
47481;SDS011;33219;47.410;9.730;2022-09-27T05:00:40;2.45;;;1.60;;
47481;SDS011;33219;47.410;9.730;2022-09-27T05:03:08;1.67;;;0.82;;
47481;SDS011;33219;47.410;9.730;2022-09-27T05:05:35;1.90;;;0.82;;
47481;SDS011;33219;47.410;9.730;2022-09-27T05:08:03;0.60;;;0.60;;
47481;SDS011;33219;47.410;9.730;2022-09-27T05:10:30;1.95;;;0.80;;
47481;SDS011;33219;47.410;9.730;2022-09-27T05:12:58;1.12;;;0.80;;
47481;SDS011;33219;47.410;9.730;2022-09-27T05:15:26;0.62;;;0.50;;
47481;SDS011;33219;47.410;9.730;2022-09-27T05:17:53;3.60;;;0.80;;
47481;SDS011;33219;47.410;9.730;2022-09-27T05:20:21;1.00;;;0.68;;
47481;SDS011;33219;47.410;9.730;2022-09-27T05:22:50;0.80;;;0.55;;
47481;SDS011;33219;47.410;9.730;2022-09-27T05:25:18;1.77;;;1.10;;
47481;SDS011;33219;47.410;9.730;2022-09-27T05:27:48;2.42;;;1.00;;
47481;SDS011;33219;47.410;9.730;2022-09-27T05:30:16;2.30;;;1.30;;
47481;SDS011;33219;47.410;9.730;2022-09-27T05:32:45;1.47;;;1.10;;
47481;SDS011;33219;47.410;9.730;2022-09-27T05:37:53;4.00;;;2.10;;
47481;SDS011;33219;47.410;9.730;2022-09-27T05:43:45;4.12;;;1.40;;
47481;SDS011;33219;47.410;9.730;2022-09-27T05:49:07;1.87;;;1.12;;
47481;SDS011;33219;47.410;9.730;2022-09-27T05:51:54;2.87;;;1.80;;
47481;SDS011;33219;47.410;9.730;2022-09-27T05:54:45;3.30;;;1.70;;
47481;SDS011;33219;47.410;9.730;2022-09-27T06:03:00;2.00;;;1.30;;
47481;SDS011;33219;47.410;9.730;2022-09-27T06:05:37;3.22;;;1.60;;
47481;SDS011;33219;47.410;9.730;2022-09-27T06:08:17;2.33;;;1.62;;
47481;SDS011;33219;47.410;9.730;2022-09-27T06:16:54;3.12;;;2.37;;
47481;SDS011;33219;47.410;9.730;2022-09-27T06:20:03;3.87;;;2.20;;
47481;SDS011;33219;47.410;9.730;2022-09-27T06:35:40;3.85;;;1.50;;
47481;SDS011;33219;47.410;9.730;2022-09-27T06:38:41;2.27;;;1.30;;
47481;SDS011;33219;47.410;9.730;2022-09-27T06:41:35;3.15;;;1.45;;
47481;SDS011;33219;47.410;9.730;2022-09-27T06:57:04;3.12;;;1.87;;
47481;SDS011;33219;47.410;9.730;2022-09-27T06:59:43;5.00;;;1.90;;
47481;SDS011;33219;47.410;9.730;2022-09-27T07:02:54;3.33;;;1.32;;
47481;SDS011;33219;47.410;9.730;2022-09-27T07:05:52;3.80;;;1.50;;
47481;SDS011;33219;47.410;9.730;2022-09-27T07:08:19;2.70;;;1.70;;
47481;SDS011;33219;47.410;9.730;2022-09-27T07:11:04;2.83;;;1.40;;
47481;SDS011;33219;47.410;9.730;2022-09-27T07:13:41;3.20;;;1.70;;
47481;SDS011;33219;47.410;9.730;2022-09-27T07:16:20;3.10;;;1.32;;
47481;SDS011;33219;47.410;9.730;2022-09-27T07:19:18;1.77;;;1.10;;
47481;SDS011;33219;47.410;9.730;2022-09-27T07:22:06;2.62;;;1.45;;
47481;SDS011;33219;47.410;9.730;2022-09-27T07:24:42;1.90;;;1.30;;
47481;SDS011;33219;47.410;9.730;2022-09-27T07:27:30;1.67;;;1.10;;
47481;SDS011;33219;47.410;9.730;2022-09-27T07:33:53;1.57;;;1.10;;
47481;SDS011;33219;47.410;9.730;2022-09-27T07:36:36;2.00;;;1.27;;
47481;SDS011;33219;47.410;9.730;2022-09-27T07:39:30;2.42;;;1.22;;
47481;SDS011;33219;47.410;9.730;2022-09-27T07:42:16;2.65;;;1.60;;
47481;SDS011;33219;47.410;9.730;2022-09-27T07:45:20;3.70;;;2.00;;
47481;SDS011;33219;47.410;9.730;2022-09-27T07:51:02;2.15;;;1.10;;
47481;SDS011;33219;47.410;9.730;2022-09-27T07:54:09;1.67;;;1.00;;
47481;SDS011;33219;47.410;9.730;2022-09-27T07:57:10;4.12;;;1.00;;
47481;SDS011;33219;47.410;9.730;2022-09-27T07:59:44;2.40;;;0.85;;
47481;SDS011;33219;47.410;9.730;2022-09-27T08:11:58;1.47;;;0.90;;
47481;SDS011;33219;47.410;9.730;2022-09-27T08:15:07;1.27;;;0.90;;
47481;SDS011;33219;47.410;9.730;2022-09-27T08:23:47;6.67;;;4.70;;
47481;SDS011;33219;47.410;9.730;2022-09-27T08:26:35;3.83;;;1.67;;
47481;SDS011;33219;47.410;9.730;2022-09-27T08:35:29;5.05;;;2.50;;
47481;SDS011;33219;47.410;9.730;2022-09-27T08:38:29;2.20;;;1.15;;
47481;SDS011;33219;47.410;9.730;2022-09-27T08:46:51;0.80;;;0.80;;
47481;SDS011;33219;47.410;9.730;2022-09-27T08:56:11;2.27;;;0.95;;
47481;SDS011;33219;47.410;9.730;2022-09-27T09:38:42;4.25;;;1.80;;
47481;SDS011;33219;47.410;9.730;2022-09-27T09:54:02;1.62;;;0.93;;
47481;SDS011;33219;47.410;9.730;2022-09-27T09:56:37;1.52;;;1.10;;
47481;SDS011;33219;47.410;9.730;2022-09-27T09:59:26;3.35;;;0.95;;
47481;SDS011;33219;47.410;9.730;2022-09-27T10:02:00;2.52;;;0.95;;
47481;SDS011;33219;47.410;9.730;2022-09-27T10:10:11;2.45;;;1.20;;
47481;SDS011;33219;47.410;9.730;2022-09-27T10:15:43;2.90;;;1.10;;
47481;SDS011;33219;47.410;9.730;2022-09-27T10:21:26;4.12;;;1.60;;
47481;SDS011;33219;47.410;9.730;2022-09-27T10:30:38;5.05;;;1.50;;
47481;SDS011;33219;47.410;9.730;2022-09-27T10:36:34;4.92;;;1.72;;
47481;SDS011;33219;47.410;9.730;2022-09-27T10:41:55;3.98;;;2.00;;
47481;SDS011;33219;47.410;9.730;2022-09-27T10:44:39;3.37;;;1.40;;
47481;SDS011;33219;47.410;9.730;2022-09-27T10:47:08;1.37;;;0.88;;
47481;SDS011;33219;47.410;9.730;2022-09-27T10:49:45;3.42;;;1.30;;
47481;SDS011;33219;47.410;9.730;2022-09-27T10:52:16;3.95;;;1.60;;
47481;SDS011;33219;47.410;9.730;2022-09-27T10:54:57;2.87;;;1.20;;
47481;SDS011;33219;47.410;9.730;2022-09-27T10:57:23;2.95;;;1.67;;
47481;SDS011;33219;47.410;9.730;2022-09-27T10:59:59;2.98;;;1.57;;
47481;SDS011;33219;47.410;9.730;2022-09-27T11:02:38;1.98;;;1.20;;
47481;SDS011;33219;47.410;9.730;2022-09-27T11:05:14;5.05;;;2.60;;
47481;SDS011;33219;47.410;9.730;2022-09-27T11:07:55;3.83;;;1.40;;
47481;SDS011;33219;47.410;9.730;2022-09-27T11:10:28;2.52;;;1.30;;
47481;SDS011;33219;47.410;9.730;2022-09-27T11:15:40;4.05;;;1.20;;
47481;SDS011;33219;47.410;9.730;2022-09-27T11:23:50;3.65;;;1.98;;
47481;SDS011;33219;47.410;9.730;2022-09-27T12:09:27;3.50;;;1.72;;
47481;SDS011;33219;47.410;9.730;2022-09-27T12:27:17;4.72;;;2.83;;
47481;SDS011;33219;47.410;9.730;2022-09-27T12:30:13;3.92;;;2.30;;
47481;SDS011;33219;47.410;9.730;2022-09-27T12:35:27;5.15;;;2.50;;
47481;SDS011;33219;47.410;9.730;2022-09-27T12:38:08;6.35;;;2.70;;
47481;SDS011;33219;47.410;9.730;2022-09-27T12:40:50;3.55;;;1.80;;
47481;SDS011;33219;47.410;9.730;2022-09-27T12:45:54;3.98;;;1.80;;
47481;SDS011;33219;47.410;9.730;2022-09-27T12:51:17;2.77;;;1.62;;
47481;SDS011;33219;47.410;9.730;2022-09-27T13:00:08;3.42;;;1.70;;
47481;SDS011;33219;47.410;9.730;2022-09-27T13:02:46;4.72;;;1.55;;
47481;SDS011;33219;47.410;9.730;2022-09-27T13:05:38;3.95;;;1.60;;
47481;SDS011;33219;47.410;9.730;2022-09-27T13:11:38;5.05;;;2.10;;
47481;SDS011;33219;47.410;9.730;2022-09-27T13:14:25;2.60;;;1.05;;
47481;SDS011;33219;47.410;9.730;2022-09-27T13:26:20;1.05;;;0.85;;
47481;SDS011;33219;47.410;9.730;2022-09-27T13:29:22;1.60;;;0.90;;
47481;SDS011;33219;47.410;9.730;2022-09-27T13:32:00;1.87;;;0.80;;
47481;SDS011;33219;47.410;9.730;2022-09-27T13:34:41;2.15;;;0.80;;
47481;SDS011;33219;47.410;9.730;2022-09-27T13:40:24;2.10;;;0.90;;
47481;SDS011;33219;47.410;9.730;2022-09-27T13:45:40;2.17;;;1.00;;
47481;SDS011;33219;47.410;9.730;2022-09-27T13:48:31;1.72;;;0.80;;
47481;SDS011;33219;47.410;9.730;2022-09-27T13:53:59;2.33;;;1.12;;
47481;SDS011;33219;47.410;9.730;2022-09-27T13:59:23;1.35;;;0.88;;
47481;SDS011;33219;47.410;9.730;2022-09-27T14:01:58;2.17;;;1.10;;
47481;SDS011;33219;47.410;9.730;2022-09-27T14:04:29;1.92;;;0.62;;
47481;SDS011;33219;47.410;9.730;2022-09-27T14:07:13;1.72;;;0.80;;
47481;SDS011;33219;47.410;9.730;2022-09-27T14:09:51;4.22;;;2.90;;
47481;SDS011;33219;47.410;9.730;2022-09-27T14:12:32;3.98;;;1.75;;
47481;SDS011;33219;47.410;9.730;2022-09-27T14:15:11;2.60;;;1.00;;
47481;SDS011;33219;47.410;9.730;2022-09-27T14:17:44;2.02;;;0.70;;
47481;SDS011;33219;47.410;9.730;2022-09-27T14:23:12;2.27;;;1.10;;
47481;SDS011;33219;47.410;9.730;2022-09-27T14:25:49;1.92;;;0.90;;
47481;SDS011;33219;47.410;9.730;2022-09-27T14:28:19;1.77;;;0.82;;
47481;SDS011;33219;47.410;9.730;2022-09-27T14:31:03;2.02;;;0.90;;
47481;SDS011;33219;47.410;9.730;2022-09-27T14:33:38;1.47;;;1.07;;
47481;SDS011;33219;47.410;9.730;2022-09-27T14:36:06;1.85;;;0.78;;
47481;SDS011;33219;47.410;9.730;2022-09-27T14:38:55;1.70;;;0.82;;
47481;SDS011;33219;47.410;9.730;2022-09-27T14:41:24;1.92;;;1.10;;
47481;SDS011;33219;47.410;9.730;2022-09-27T14:43:53;1.30;;;0.65;;
47481;SDS011;33219;47.410;9.730;2022-09-27T14:46:32;2.55;;;0.80;;
47481;SDS011;33219;47.410;9.730;2022-09-27T14:48:57;1.32;;;0.90;;
47481;SDS011;33219;47.410;9.730;2022-09-27T14:51:29;1.32;;;0.80;;
47481;SDS011;33219;47.410;9.730;2022-09-27T14:53:59;4.78;;;1.10;;
47481;SDS011;33219;47.410;9.730;2022-09-27T14:56:32;0.98;;;0.60;;
47481;SDS011;33219;47.410;9.730;2022-09-27T14:59:13;1.40;;;0.65;;
47481;SDS011;33219;47.410;9.730;2022-09-27T15:01:38;1.07;;;0.75;;
47481;SDS011;33219;47.410;9.730;2022-09-27T15:04:11;1.55;;;1.00;;
47481;SDS011;33219;47.410;9.730;2022-09-27T15:06:40;1.60;;;0.70;;
47481;SDS011;33219;47.410;9.730;2022-09-27T15:09:16;3.83;;;2.12;;
47481;SDS011;33219;47.410;9.730;2022-09-27T15:11:41;4.72;;;2.65;;
47481;SDS011;33219;47.410;9.730;2022-09-27T15:14:12;4.40;;;2.42;;
47481;SDS011;33219;47.410;9.730;2022-09-27T15:16:45;3.83;;;2.70;;
47481;SDS011;33219;47.410;9.730;2022-09-27T15:19:14;2.47;;;1.57;;
47481;SDS011;33219;47.410;9.730;2022-09-27T15:21:44;1.47;;;1.10;;
47481;SDS011;33219;47.410;9.730;2022-09-27T15:27:14;2.22;;;1.27;;
47481;SDS011;33219;47.410;9.730;2022-09-27T15:29:50;2.60;;;1.40;;
47481;SDS011;33219;47.410;9.730;2022-09-27T15:32:25;1.72;;;1.22;;
47481;SDS011;33219;47.410;9.730;2022-09-27T15:34:51;2.15;;;1.25;;
47481;SDS011;33219;47.410;9.730;2022-09-27T15:37:25;1.92;;;1.22;;
47481;SDS011;33219;47.410;9.730;2022-09-27T15:39:54;1.02;;;0.82;;
47481;SDS011;33219;47.410;9.730;2022-09-27T15:42:25;1.42;;;0.98;;
47481;SDS011;33219;47.410;9.730;2022-09-27T15:44:54;3.12;;;1.12;;
47481;SDS011;33219;47.410;9.730;2022-09-27T15:52:45;2.00;;;1.10;;
47481;SDS011;33219;47.410;9.730;2022-09-27T15:55:18;3.20;;;1.62;;
47481;SDS011;33219;47.410;9.730;2022-09-27T15:57:56;3.00;;;1.50;;
47481;SDS011;33219;47.410;9.730;2022-09-27T16:00:33;2.90;;;1.42;;
47481;SDS011;33219;47.410;9.730;2022-09-27T16:03:01;2.22;;;1.10;;
47481;SDS011;33219;47.410;9.730;2022-09-27T16:05:28;2.30;;;1.10;;
47481;SDS011;33219;47.410;9.730;2022-09-27T16:07:57;1.60;;;1.00;;
47481;SDS011;33219;47.410;9.730;2022-09-27T16:10:29;1.90;;;1.10;;
47481;SDS011;33219;47.410;9.730;2022-09-27T16:13:07;1.85;;;1.05;;
47481;SDS011;33219;47.410;9.730;2022-09-27T16:15:35;2.27;;;1.50;;
47481;SDS011;33219;47.410;9.730;2022-09-27T16:18:03;1.77;;;1.37;;
47481;SDS011;33219;47.410;9.730;2022-09-27T16:20:30;2.30;;;1.40;;
47481;SDS011;33219;47.410;9.730;2022-09-27T16:22:58;1.85;;;1.05;;
47481;SDS011;33219;47.410;9.730;2022-09-27T16:25:26;3.85;;;1.35;;
47481;SDS011;33219;47.410;9.730;2022-09-27T16:27:57;1.55;;;1.20;;
47481;SDS011;33219;47.410;9.730;2022-09-27T16:30:28;1.60;;;1.00;;
47481;SDS011;33219;47.410;9.730;2022-09-27T16:32:57;4.58;;;1.10;;
47481;SDS011;33219;47.410;9.730;2022-09-27T16:35:25;2.55;;;1.50;;
47481;SDS011;33219;47.410;9.730;2022-09-27T16:37:53;2.65;;;1.40;;
47481;SDS011;33219;47.410;9.730;2022-09-27T16:40:21;3.58;;;1.60;;
47481;SDS011;33219;47.410;9.730;2022-09-27T16:42:50;3.70;;;1.50;;
47481;SDS011;33219;47.410;9.730;2022-09-27T16:45:17;3.00;;;1.20;;
47481;SDS011;33219;47.410;9.730;2022-09-27T16:47:45;2.10;;;1.50;;
47481;SDS011;33219;47.410;9.730;2022-09-27T16:50:13;3.30;;;1.50;;
47481;SDS011;33219;47.410;9.730;2022-09-27T16:52:59;2.92;;;1.50;;
47481;SDS011;33219;47.410;9.730;2022-09-27T16:55:27;5.08;;;1.95;;
47481;SDS011;33219;47.410;9.730;2022-09-27T16:57:59;4.10;;;1.67;;
47481;SDS011;33219;47.410;9.730;2022-09-27T17:00:24;2.83;;;1.60;;
47481;SDS011;33219;47.410;9.730;2022-09-27T17:02:52;3.10;;;1.60;;
47481;SDS011;33219;47.410;9.730;2022-09-27T17:05:20;2.83;;;1.80;;
47481;SDS011;33219;47.410;9.730;2022-09-27T17:07:56;3.98;;;1.95;;
47481;SDS011;33219;47.410;9.730;2022-09-27T17:10:20;4.70;;;2.62;;
47481;SDS011;33219;47.410;9.730;2022-09-27T17:12:48;9.95;;;5.72;;
47481;SDS011;33219;47.410;9.730;2022-09-27T17:15:16;9.73;;;6.35;;
47481;SDS011;33219;47.410;9.730;2022-09-27T17:17:48;10.75;;;6.90;;
47481;SDS011;33219;47.410;9.730;2022-09-27T17:20:16;9.58;;;6.62;;
47481;SDS011;33219;47.410;9.730;2022-09-27T17:22:43;10.78;;;7.12;;
47481;SDS011;33219;47.410;9.730;2022-09-27T17:25:11;7.35;;;5.10;;
47481;SDS011;33219;47.410;9.730;2022-09-27T17:27:38;6.60;;;3.52;;
47481;SDS011;33219;47.410;9.730;2022-09-27T17:30:06;6.47;;;3.42;;
47481;SDS011;33219;47.410;9.730;2022-09-27T17:32:34;5.53;;;3.10;;
47481;SDS011;33219;47.410;9.730;2022-09-27T17:35:03;4.72;;;2.75;;
47481;SDS011;33219;47.410;9.730;2022-09-27T17:37:32;8.15;;;2.90;;
47481;SDS011;33219;47.410;9.730;2022-09-27T17:40:00;4.45;;;2.40;;
47481;SDS011;33219;47.410;9.730;2022-09-27T17:42:28;4.78;;;2.25;;
47481;SDS011;33219;47.410;9.730;2022-09-27T17:44:56;4.00;;;2.47;;
47481;SDS011;33219;47.410;9.730;2022-09-27T17:47:23;4.58;;;2.50;;
47481;SDS011;33219;47.410;9.730;2022-09-27T17:50:09;6.03;;;2.50;;
47481;SDS011;33219;47.410;9.730;2022-09-27T17:52:49;6.03;;;2.62;;
47481;SDS011;33219;47.410;9.730;2022-09-27T17:55:18;4.50;;;2.77;;
47481;SDS011;33219;47.410;9.730;2022-09-27T17:57:49;3.80;;;2.47;;
47481;SDS011;33219;47.410;9.730;2022-09-27T18:00:17;8.55;;;5.08;;
47481;SDS011;33219;47.410;9.730;2022-09-27T18:02:45;7.83;;;5.60;;
47481;SDS011;33219;47.410;9.730;2022-09-27T18:05:13;7.92;;;5.03;;
47481;SDS011;33219;47.410;9.730;2022-09-27T18:07:42;6.12;;;4.30;;
47481;SDS011;33219;47.410;9.730;2022-09-27T18:10:10;6.42;;;4.28;;
47481;SDS011;33219;47.410;9.730;2022-09-27T18:12:37;7.47;;;4.10;;
47481;SDS011;33219;47.410;9.730;2022-09-27T18:15:06;7.40;;;4.37;;
47481;SDS011;33219;47.410;9.730;2022-09-27T18:17:34;7.70;;;5.03;;
47481;SDS011;33219;47.410;9.730;2022-09-27T18:20:02;7.83;;;6.03;;
47481;SDS011;33219;47.410;9.730;2022-09-27T18:22:31;7.78;;;5.33;;
47481;SDS011;33219;47.410;9.730;2022-09-27T18:24:58;9.45;;;5.37;;
47481;SDS011;33219;47.410;9.730;2022-09-27T18:27:26;9.10;;;5.70;;
47481;SDS011;33219;47.410;9.730;2022-09-27T18:29:54;8.00;;;4.50;;
47481;SDS011;33219;47.410;9.730;2022-09-27T18:32:22;6.33;;;3.92;;
47481;SDS011;33219;47.410;9.730;2022-09-27T18:34:49;7.35;;;3.92;;
47481;SDS011;33219;47.410;9.730;2022-09-27T18:37:17;5.50;;;3.90;;
47481;SDS011;33219;47.410;9.730;2022-09-27T18:39:44;7.60;;;5.03;;
47481;SDS011;33219;47.410;9.730;2022-09-27T18:42:12;7.00;;;3.83;;
47481;SDS011;33219;47.410;9.730;2022-09-27T18:44:39;7.75;;;3.75;;
47481;SDS011;33219;47.410;9.730;2022-09-27T18:47:07;6.80;;;3.60;;
47481;SDS011;33219;47.410;9.730;2022-09-27T18:49:34;4.33;;;3.10;;
47481;SDS011;33219;47.410;9.730;2022-09-27T18:52:02;5.58;;;2.98;;
47481;SDS011;33219;47.410;9.730;2022-09-27T18:54:29;3.72;;;2.72;;
47481;SDS011;33219;47.410;9.730;2022-09-27T18:56:57;4.55;;;2.52;;
47481;SDS011;33219;47.410;9.730;2022-09-27T18:59:25;3.98;;;2.87;;
47481;SDS011;33219;47.410;9.730;2022-09-27T19:01:53;5.42;;;2.60;;
47481;SDS011;33219;47.410;9.730;2022-09-27T19:04:21;3.72;;;2.85;;
47481;SDS011;33219;47.410;9.730;2022-09-27T19:06:52;5.22;;;2.50;;
47481;SDS011;33219;47.410;9.730;2022-09-27T19:09:20;4.03;;;2.27;;
47481;SDS011;33219;47.410;9.730;2022-09-27T19:11:50;5.72;;;2.90;;
47481;SDS011;33219;47.410;9.730;2022-09-27T19:14:18;5.87;;;3.20;;
47481;SDS011;33219;47.410;9.730;2022-09-27T19:16:47;6.10;;;3.30;;
47481;SDS011;33219;47.410;9.730;2022-09-27T19:19:15;4.87;;;3.33;;
47481;SDS011;33219;47.410;9.730;2022-09-27T19:21:44;4.70;;;3.35;;
47481;SDS011;33219;47.410;9.730;2022-09-27T19:24:12;7.47;;;4.33;;
47481;SDS011;33219;47.410;9.730;2022-09-27T19:26:40;5.28;;;3.70;;
47481;SDS011;33219;47.410;9.730;2022-09-27T19:29:08;5.85;;;3.67;;
47481;SDS011;33219;47.410;9.730;2022-09-27T19:31:37;6.62;;;3.70;;
47481;SDS011;33219;47.410;9.730;2022-09-27T19:34:05;5.55;;;3.15;;
47481;SDS011;33219;47.410;9.730;2022-09-27T19:36:32;4.03;;;2.60;;
47481;SDS011;33219;47.410;9.730;2022-09-27T19:39:00;6.22;;;2.87;;
47481;SDS011;33219;47.410;9.730;2022-09-27T19:41:28;4.67;;;2.80;;
47481;SDS011;33219;47.410;9.730;2022-09-27T19:43:55;4.35;;;2.62;;
47481;SDS011;33219;47.410;9.730;2022-09-27T19:46:23;4.87;;;2.40;;
47481;SDS011;33219;47.410;9.730;2022-09-27T19:48:51;4.37;;;2.50;;
47481;SDS011;33219;47.410;9.730;2022-09-27T19:51:21;3.45;;;2.55;;
47481;SDS011;33219;47.410;9.730;2022-09-27T19:53:51;2.55;;;1.90;;
47481;SDS011;33219;47.410;9.730;2022-09-27T19:56:19;3.77;;;2.17;;
47481;SDS011;33219;47.410;9.730;2022-09-27T19:58:48;5.53;;;3.37;;
47481;SDS011;33219;47.410;9.730;2022-09-27T20:01:17;5.85;;;3.40;;
47481;SDS011;33219;47.410;9.730;2022-09-27T20:03:49;9.93;;;4.10;;
47481;SDS011;33219;47.410;9.730;2022-09-27T20:06:18;6.00;;;2.98;;
47481;SDS011;33219;47.410;9.730;2022-09-27T20:08:47;8.20;;;4.58;;
47481;SDS011;33219;47.410;9.730;2022-09-27T20:11:21;4.37;;;2.25;;
47481;SDS011;33219;47.410;9.730;2022-09-27T20:13:45;2.83;;;1.67;;
47481;SDS011;33219;47.410;9.730;2022-09-27T20:16:17;3.10;;;2.00;;
47481;SDS011;33219;47.410;9.730;2022-09-27T20:18:47;2.22;;;1.70;;
47481;SDS011;33219;47.410;9.730;2022-09-27T20:21:17;2.50;;;1.60;;
47481;SDS011;33219;47.410;9.730;2022-09-27T20:23:48;2.20;;;1.60;;
47481;SDS011;33219;47.410;9.730;2022-09-27T20:26:18;5.20;;;2.33;;
47481;SDS011;33219;47.410;9.730;2022-09-27T20:28:48;3.50;;;1.60;;
47481;SDS011;33219;47.410;9.730;2022-09-27T20:31:20;2.58;;;1.50;;
47481;SDS011;33219;47.410;9.730;2022-09-27T20:33:47;3.08;;;1.50;;
47481;SDS011;33219;47.410;9.730;2022-09-27T20:36:19;4.25;;;1.70;;